RAAF Base Curtin
YCIN : now visible

Aeroporto :











RITROVATECI SU...

 
LOGIN :

Iscrizione | Disclaimer

   EN    FR    IT 

 









Sommario :    VFR   VFR Marginale   IFR   IFR Intensivo   IFR Molto Intensivo
Visibilità : 
Base nubi : 
>= 8 km
>= 3000ft
5 / 8 km
1000 / 3000 ft
1500m / 5 km
500 / 1000 ft
800 / 1500m
200 / 500 ft
< 800m
< 200 ft
Simboli :   Temporali  Nebbia  Neve Forte  Precipitazioni Forti  Vento > 20 kt






- Altitudine del aeroporto : 300 ft


YCIN - RAAF Base Curtin

ULTIMO METAR :
  • 181900Z AUTO 34004KT 9999 // SCT017 26/26 Q1006

METARs OBSOLETI :
  • 181830Z AUTO 00000KT 9999 // NCD 25/25 Q1005 RF00.0/021.4
  • 181800Z AUTO 00000KT 9999 // NCD 26/26 Q1005
  • 181730Z AUTO 35003KT 9999 // NCD 26/26 Q1006 RF00.0/021.2
  • 181700Z AUTO 00000KT 9999 // NCD 26/26 Q1006
  • 181630Z AUTO 00000KT 9999 // NCD 26/26 Q1006 RF00.0/021.2

TAF TAF YCIN
Valido dal 18 a 20 ore il 19 a 08 ore UTC


181845Z 1820/1908 30007KT 9999 SCT020



MetMap, La meteo Aeronautica in un colpo d'occhio ! - Copyright ORBIFLY Dicembre 2007 - Disclaimer

ORBIFLY MET'MAP TEAM :

Programmazione e sviluppo : Alexandra Zaïnal
Concezione : Baudouin d'Aumeries
Aiuto per la programmazione : Marc-Olivier Méhu
Supporto tecnico e logistico : Manuel Goepfert
Aiuto per la traduzione : Arnaldo La Scala

Contatto : metmap@orbifly.com




FONTI E CREDITI :

   NOAA       Earth
Advisory